Date,TemperatureHighF,TemperatureAvgF,TemperatureLowF,DewpointHighF,DewpointAvgF,DewpointLowF,HumidityHigh,HumidityAvg,HumidityLow,PressureMaxIn,PressureMinIn,WindSpeedMaxMPH,WindSpeedAvgMPH,GustSpeedMaxMPH,PrecipitationSumIn
2013-1-1,49.6,46.1,42.8,50.0,41.4,30.0,100,85,56,30.07,29.88,2,0,0,1.28
2013-1-2,49.8,44.4,39.2,50.0,40.8,35.0,100,87,72,30.10,29.84,3,1,0,0.06
2013-1-3,46.1,38.7,35.5,36.0,17.2,-99.9,86,65,57,30.26,30.05,3,-21,0,0.00
2013-1-4,51.1,37.4,28.1,26.0,21.5,14.0,84,57,24,30.32,30.21,6,1,0,0.00
2013-1-5,48.6,37.5,26.0,35.0,19.4,-99.9,81,57,30,30.35,30.20,2,-11,0,0.01
2013-1-6,47.1,41.9,36.8,37.0,33.7,32.0,83,73,61,30.23,30.07,6,1,0,0.00
2013-1-7,55.0,41.6,29.5,31.0,26.6,23.0,86,59,29,30.34,30.18,8,1,0,0.00
2013-1-8,49.5,42.5,31.5,36.0,31.3,26.0,83,66,54,30.37,30.27,8,1,0,0.00
2013-1-9,63.9,55.1,48.5,48.0,43.3,36.0,80,65,53,30.36,30.27,5,0,0,0.00
2013-1-10,67.1,59.1,52.3,57.0,50.8,47.0,94,75,57,30.35,30.17,7,1,0,0.01
2013-1-11,68.3,62.6,59.0,63.0,61.0,57.0,100,94,74,30.18,30.02,6,1,0,0.36
2013-1-12,71.8,62.2,55.7,68.0,58.2,54.0,100,88,59,30.08,29.98,6,0,0,0.01
2013-1-13,70.3,62.8,56.7,61.0,57.3,54.0,96,83,64,30.05,29.93,6,1,0,0.00
2013-1-14,65.5,59.6,52.8,64.0,56.2,-99.9,100,93,80,30.04,29.93,6,-10,0,0.62
2013-1-15,63.1,57.5,52.2,63.0,57.6,52.0,100,100,100,30.03,29.88,6,0,0,0.50
2013-1-16,63.5,57.8,53.5,64.0,57.7,54.0,100,99,96,29.92,29.82,4,0,0,0.62
2013-1-17,55.0,47.7,38.3,55.0,37.7,-99.9,100,90,84,30.14,29.62,12,-20,0,0.92
2013-1-18,53.9,40.9,31.8,32.0,18.9,-99.9,85,55,22,30.43,30.16,2,-10,0,0.00
2013-1-19,53.8,38.5,27.3,32.0,25.0,-99.9,92,65,26,30.43,30.17,5,-12,0,0.00
2013-1-20,60.4,45.2,33.4,35.0,29.5,-99.9,88,59,32,30.17,30.02,5,-10,0,0.00
2013-1-21,55.0,43.9,34.4,34.0,23.9,-99.9,85,50,29,30.08,29.98,7,-9,0,0.00
2013-1-22,41.9,34.1,28.8,13.0,5.8,-99.9,46,34,24,30.26,30.07,7,-19,0,0.00
2013-1-23,49.1,38.1,26.3,34.0,18.6,7.0,69,47,32,30.32,30.09,7,1,0,0.00
2013-1-24,50.8,45.2,32.7,37.0,22.5,-99.9,70,45,19,30.33,30.04,6,-8,0,0.00
2013-1-25,35.5,30.5,27.2,30.0,13.7,2.0,83,52,31,30.38,30.11,13,2,0,0.00
2013-1-26,57.2,41.0,34.6,38.0,12.5,-99.9,98,54,19,30.23,30.08,3,-62,0,0.00
2013-1-27,47.9,39.9,33.8,29.0,24.0,-99.9,77,59,45,30.44,30.20,8,-9,0,0.00
2013-1-28,51.0,41.5,40.3,40.0,22.3,-99.9,89,61,58,30.38,30.22,6,-53,0,0.00
2013-1-29,71.3,52.7,38.9,60.0,40.9,-99.9,100,79,55,30.22,29.90,6,-41,0,0.03
2013-1-30,66.0,59.9,43.9,64.0,56.0,35.0,96,87,72,29.90,29.44,11,3,0,1.39
2013-1-31,46.4,35.1,34.4,36.0,6.3,-99.9,75,45,31,30.09,29.68,11,-111,0,0.00
2013-2-1,41.8,35.4,26.6,26.0,8.5,-99.9,60,37,22,30.33,30.03,12,-18,0,0.00
2013-2-2,47.9,34.3,21.8,37.0,17.4,4.0,95,56,17,30.33,30.06,13,1,0,0.16
2013-2-3,52.9,41.8,34.1,37.0,25.1,-99.9,96,62,29,30.06,29.90,12,-8,0,0.01
2013-2-4,48.3,34.5,31.3,30.0,-0.6,-99.9,71,46,31,30.08,29.93,4,-94,0,0.00
2013-2-5,55.1,45.4,32.2,45.0,34.6,-99.9,83,70,50,29.97,29.91,5,1,0,0.00
2013-2-6,66.3,52.0,40.8,45.0,35.0,22.0,96,61,20,30.10,29.95,6,0,0,0.00
2013-2-7,48.2,43.5,40.3,44.0,34.0,-99.9,96,76,42,30.09,29.86,12,-8,0,0.44
2013-2-8,55.0,47.5,39.8,46.0,40.2,27.0,95,77,42,30.09,29.86,7,1,0,0.00
2013-2-9,61.2,43.9,31.3,33.0,24.6,-99.9,81,54,16,30.24,30.06,6,-10,0,0.00
2013-2-10,58.7,45.8,36.6,47.0,33.4,-99.9,100,68,46,30.30,30.02,10,-9,0,1.26
2013-2-11,54.8,50.2,47.1,55.0,49.9,47.0,100,98,89,30.05,29.97,6,0,0,0.32
2013-2-12,56.6,49.3,43.2,46.0,38.5,25.0,92,70,30,30.04,29.79,13,1,0,0.22
2013-2-13,51.4,43.9,37.6,47.0,40.3,31.0,100,88,69,29.89,29.68,7,2,0,0.09
2013-2-14,55.1,42.1,32.2,33.0,26.7,-99.9,90,61,30,30.02,29.87,4,-10,0,0.00
2013-2-15,60.5,46.2,34.6,37.0,30.2,-99.9,90,60,28,30.05,29.91,6,-10,0,0.00
2013-2-16,42.2,37.3,29.3,32.0,18.2,4.0,73,49,27,30.08,29.87,11,3,0,0.00
2013-2-17,43.6,32.2,23.0,18.0,7.4,-99.9,65,39,19,30.25,30.07,8,-9,0,0.00
2013-2-18,57.2,40.7,24.7,22.0,18.9,15.0,78,46,22,30.33,30.10,8,1,0,0.00
2013-2-19,54.7,44.1,38.5,46.0,29.5,12.0,100,62,30,30.08,29.92,8,1,0,0.29
2013-2-20,52.9,40.2,28.2,16.0,9.8,-99.9,60,31,15,30.12,30.03,7,-9,0,0.00
2013-2-21,62.7,46.9,30.7,32.0,16.4,9.0,65,32,16,30.14,29.92,12,1,0,0.01
2013-2-22,49.4,38.4,38.2,40.0,28.8,-99.9,100,88,56,30.12,30.01,10,-38,0,1.57
2013-2-23,47.7,42.9,39.3,48.0,42.9,39.0,100,100,95,30.01,29.79,6,1,0,0.73
2013-2-24,64.2,50.4,39.8,46.0,36.3,28.0,100,65,26,29.95,29.83,6,1,0,0.00
2013-2-25,48.8,42.6,37.5,37.0,26.0,-99.9,94,57,40,30.00,29.84,20,-18,0,0.04
2013-2-26,44.2,37.9,34.6,44.0,27.0,-99.9,100,87,68,29.83,29.53,14,-7,0,1.45
2013-2-27,57.0,46.7,40.1,34.0,27.5,-99.9,69,52,32,29.82,29.70,9,-7,0,0.00
2013-2-28,48.5,40.1,35.3,32.0,24.9,-99.9,73,57,46,29.92,29.75,7,-7,0,0.00
2013-3-1,41.5,37.4,32.2,27.0,24.6,22.0,67,60,52,29.93,29.88,7,2,0,0.00
2013-3-2,42.5,36.4,32.8,28.0,24.5,18.0,78,63,44,29.95,29.86,8,3,0,0.00
2013-3-3,41.1,33.8,30.0,20.0,15.5,12.0,67,48,31,30.03,29.92,11,3,0,0.00
2013-3-4,59.0,42.4,27.8,30.0,18.2,11.0,64,41,20,30.13,29.95,3,1,0,0.00
2013-3-5,65.6,47.9,38.3,53.0,34.7,-99.9,85,65,52,30.00,29.58,14,-6,0,0.34
2013-3-6,38.5,35.5,31.6,26.0,21.6,15.0,78,58,49,30.11,29.78,12,5,0,0.00
2013-3-7,58.4,42.0,29.4,29.0,25.2,22.0,82,55,26,30.20,30.08,6,1,0,0.00
2013-3-8,64.8,44.8,29.4,31.0,20.8,-99.9,86,47,15,30.27,30.12,5,-20,0,0.00
2013-3-9,62.0,47.8,33.8,36.0,25.3,-99.9,79,48,23,30.28,30.14,7,0,0,0.00
2013-3-10,68.4,56.0,45.2,41.0,32.0,25.0,68,43,20,30.17,30.01,13,1,0,0.00
2013-3-11,63.7,54.5,52.0,54.0,46.0,-99.9,100,78,58,30.01,29.72,7,-10,0,1.03
2013-3-12,58.6,48.7,38.8,54.0,34.8,27.0,100,63,35,30.01,29.72,8,4,0,0.01
2013-3-13,52.0,34.0,37.2,29.0,-7.3,-99.9,69,36,24,30.17,29.99,106,-168,0,0.00
2013-3-14,52.9,25.7,28.8,18.0,-29.7,-99.9,56,25,20,30.30,30.14,36,-272,0,0.00
2013-3-15,73.0,43.4,35.3,38.0,-1.8,-99.9,78,35,24,30.16,29.88,8,-167,0,0.00
2013-3-16,75.8,63.5,53.6,39.0,36.2,27.0,57,39,17,29.90,29.75,11,4,0,0.00
2013-3-17,70.3,62.4,53.5,50.0,44.3,37.0,71,53,39,29.91,29.80,6,2,0,0.00
2013-3-18,59.0,48.6,43.1,53.0,41.6,-99.9,100,82,65,29.95,29.77,6,-10,0,0.37
2013-3-19,63.2,51.3,43.1,47.0,31.2,17.0,100,56,20,30.00,29.83,16,2,0,0.00
2013-3-20,57.2,46.8,41.3,21.0,8.8,-99.9,38,24,15,30.05,29.82,14,-29,0,0.00
2013-3-21,46.1,37.1,31.2,25.0,0.5,-99.9,59,30,18,29.91,29.78,11,-29,0,0.00
2013-3-22,49.6,41.6,32.9,29.0,19.2,11.0,59,42,27,30.01,29.90,3,0,0,0.00
2013-3-23,50.2,43.1,40.5,46.0,28.0,-99.9,96,75,52,29.97,29.76,5,-33,0,1.02
2013-3-24,47.4,45.9,42.8,46.0,43.4,29.0,97,91,59,29.79,29.46,16,3,0,1.22
2013-3-25,41.9,37.3,33.7,29.0,17.6,-99.9,63,51,42,30.00,29.61,16,-4,0,0.00
2013-3-26,40.8,35.4,30.9,24.0,20.3,-99.9,75,57,42,30.21,29.97,10,-7,0,0.00
2013-3-27,53.2,40.7,29.1,26.0,15.3,-99.9,75,47,25,30.28,30.15,10,3,0,0.00
2013-3-28,60.4,44.2,31.2,33.0,19.7,-99.9,83,48,20,30.27,30.14,8,-10,0,0.00
2013-3-29,65.3,50.5,34.9,33.0,25.7,-99.9,82,46,20,30.28,30.10,6,1,0,0.00
2013-3-30,71.1,56.5,46.0,54.0,33.2,-99.9,93,50,27,30.12,29.94,5,-11,0,0.27
2013-3-31,65.8,59.0,55.0,60.0,54.5,51.0,100,85,69,29.94,29.77,6,1,0,0.10
2013-4-1,69.9,61.1,54.5,55.0,43.9,30.0,94,59,24,29.93,29.76,10,2,0,0.00
2013-4-2,66.9,45.5,43.6,41.0,-0.5,-99.9,76,36,21,30.08,29.93,7,-126,0,0.00
2013-4-3,59.2,35.3,43.3,41.0,-46.4,-99.9,82,17,26,30.13,29.98,7,-276,0,0.08
2013-4-4,45.7,31.0,38.3,41.0,-22.3,-99.9,95,51,76,30.10,29.92,11,-178,0,0.30
2013-4-5,66.4,48.9,38.5,46.0,28.5,-99.9,100,62,25,29.98,29.86,6,-44,0,0.04
2013-4-6,71.5,57.9,39.9,41.0,31.8,-99.9,85,44,19,30.12,29.98,5,-11,0,0.00
2013-4-7,74.0,61.5,43.9,47.0,41.0,35.0,73,50,27,30.15,29.99,6,1,0,0.00
2013-4-8,76.8,64.2,53.6,55.0,49.0,46.0,80,61,34,30.07,29.96,9,1,0,0.00
2013-4-9,81.4,67.3,53.8,63.0,52.6,48.0,93,63,33,30.10,29.99,5,0,0,0.00
2013-4-10,83.6,69.4,55.1,62.0,53.0,50.0,91,60,31,30.04,29.83,3,0,0,0.00
2013-4-11,79.4,68.2,56.7,65.0,56.8,51.0,96,68,48,29.86,29.57,9,1,0,0.97
2013-4-12,67.3,56.3,56.2,62.0,31.9,-99.9,96,57,29,29.82,29.56,10,-68,0,0.19
2013-4-13,75.8,61.5,45.8,42.0,34.9,25.0,77,41,17,29.95,29.81,6,2,0,0.00
2013-4-14,61.2,55.1,48.0,53.0,45.8,38.0,86,72,52,29.99,29.85,8,0,0,0.12
2013-4-15,73.0,62.2,55.7,59.0,52.8,-99.9,96,77,50,30.06,29.86,3,0,0,0.00
2013-4-16,78.8,67.8,59.6,61.0,57.8,55.0,94,73,46,30.17,30.05,3,0,0,0.00
2013-4-17,82.8,69.2,61.8,64.0,52.2,-99.9,92,65,42,30.13,29.98,12,-21,0,0.00
2013-4-18,78.5,69.0,59.6,64.0,57.3,53.0,96,69,44,30.01,29.82,7,1,0,0.00
2013-4-19,69.3,59.1,47.1,63.0,54.1,36.0,99,84,65,29.94,29.69,8,2,0,0.43
2013-4-20,63.4,50.3,40.1,37.0,24.1,-99.9,69,44,20,30.15,29.94,9,-30,0,0.00
2013-4-21,67.6,53.7,39.8,38.0,30.9,-99.9,88,51,27,30.28,30.15,11,-9,0,0.00
2013-4-22,67.8,52.4,46.1,41.0,21.3,-99.9,71,46,8,30.26,30.08,6,-63,0,0.00
2013-4-23,72.8,58.3,44.1,49.0,31.4,-99.9,77,48,32,30.16,30.00,5,0,0,0.00
2013-4-24,74.2,61.4,51.1,61.0,53.0,46.0,96,76,44,30.04,29.96,7,1,0,0.07
2013-4-25,71.3,58.4,47.0,56.0,40.4,24.0,92,58,17,30.21,30.01,7,1,0,0.01
2013-4-26,74.4,56.7,41.1,48.0,18.2,-99.9,82,41,24,30.30,30.17,7,-41,0,0.00
2013-4-27,64.7,58.7,53.1,52.0,49.4,40.0,91,73,46,30.25,30.11,10,2,0,0.08
2013-4-28,56.9,51.1,52.8,56.0,41.1,-99.9,100,90,85,30.13,29.94,6,-62,0,1.74
2013-4-29,69.9,59.7,54.1,64.0,55.4,51.0,100,88,52,29.97,29.83,6,0,0,0.00
2013-4-30,75.3,63.1,53.3,65.0,55.4,50.0,100,79,42,30.02,29.88,4,0,0,0.00
2013-5-1,68.4,53.0,59.2,58.0,29.6,-99.9,94,64,55,30.12,30.01,12,-113,0,0.00
2013-5-2,63.7,55.8,58.0,60.0,25.8,-99.9,100,68,75,30.13,30.05,10,-60,0,0.01
2013-5-3,59.6,58.2,56.5,58.0,55.0,51.0,96,89,75,30.07,29.91,10,3,0,0.07
2013-5-4,57.6,52.6,48.8,54.0,51.0,46.0,100,94,77,29.91,29.78,14,3,0,2.19
2013-5-5,61.6,55.4,50.1,58.0,54.1,50.0,100,95,78,29.78,29.66,9,1,0,1.91
2013-5-6,55.6,43.7,45.2,50.0,18.9,-99.9,100,70,67,29.82,29.73,2,-137,0,0.00
2013-5-7,66.4,40.6,51.7,53.0,-5.1,-99.9,92,42,47,29.89,29.78,3,-322,0,0.03
2013-5-8,74.2,63.4,54.1,56.0,52.0,49.0,87,68,45,29.96,29.86,5,0,0,0.00
2013-5-9,79.0,67.7,56.7,60.0,54.3,50.0,93,65,37,30.01,29.93,6,0,0,0.00
2013-5-10,77.4,67.9,56.6,66.0,55.9,52.0,94,68,42,29.99,29.86,5,0,0,0.00
2013-5-11,71.6,65.4,59.8,65.0,53.1,-99.9,96,77,65,29.89,29.78,2,-10,0,0.35
2013-5-12,66.9,60.7,52.9,61.0,44.9,28.0,94,61,27,30.01,29.82,7,1,0,0.00
2013-5-13,66.3,56.3,43.9,42.0,33.0,26.0,75,44,24,30.14,30.01,6,1,0,0.00
2013-5-14,75.1,52.5,44.1,60.0,14.5,-99.9,86,48,31,30.18,30.00,3,-125,0,0.00
2013-5-15,83.8,67.4,61.8,57.0,42.4,-99.9,70,50,28,30.05,29.91,6,-48,0,0.00
2013-5-16,81.2,68.1,63.9,59.0,49.1,-99.9,73,58,40,29.99,29.86,1,-32,0,0.00
2013-5-17,80.1,70.8,59.2,61.0,54.5,47.0,84,58,34,30.00,29.91,3,0,0,0.00
2013-5-18,73.0,68.2,64.5,66.0,62.9,59.0,100,84,65,30.00,29.93,3,0,0,0.24
2013-5-19,67.4,61.4,62.7,67.0,46.4,-99.9,100,87,89,30.02,29.91,3,-52,0,2.31
2013-5-20,81.2,63.8,63.9,72.0,41.4,-99.9,100,73,55,30.03,29.89,2,-73,0,0.00
2013-5-21,84.3,75.1,65.3,71.0,65.6,61.0,99,74,47,29.94,29.80,1,0,0,0.00
2013-5-22,83.4,72.3,64.2,68.0,64.2,59.0,95,77,57,29.89,29.74,5,0,0,0.00
2013-5-23,80.1,72.3,65.2,68.0,60.6,52.0,100,70,45,29.86,29.79,5,1,0,0.13
2013-5-24,74.4,67.1,59.8,54.0,46.6,36.0,74,50,27,30.10,29.86,7,2,0,0.00
2013-5-25,76.1,63.1,47.9,51.0,42.5,38.0,86,51,27,30.23,30.10,5,0,0,0.00
2013-5-26,79.9,65.5,53.5,57.0,40.4,-99.9,85,53,28,30.18,30.05,5,-10,0,0.00
2013-5-27,83.4,70.2,55.7,61.0,54.8,51.0,86,61,35,30.15,30.01,2,0,0,0.00
2013-5-28,84.3,71.4,62.1,61.0,48.8,-99.9,83,57,34,30.11,30.02,1,-31,0,0.00
2013-5-29,81.6,71.7,60.1,62.0,58.7,55.0,88,65,47,30.13,30.03,3,0,0,0.00
2013-5-30,82.4,72.6,64.0,66.0,61.9,58.0,93,71,49,30.16,30.02,6,0,0,0.00
2013-5-31,84.0,69.6,65.5,66.0,46.4,-99.9,92,61,44,30.11,29.98,1,-63,0,0.00
2013-6-1,82.8,74.7,66.9,65.0,62.4,60.0,85,66,50,30.01,29.89,3,0,0,0.00
2013-6-2,82.6,73.1,66.8,72.0,65.8,62.0,96,79,56,29.90,29.77,3,0,0,0.49
2013-6-3,81.4,66.9,65.8,72.0,38.9,-99.9,100,67,52,29.86,29.75,6,-73,0,0.01
2013-6-4,84.7,75.1,64.2,65.0,62.6,61.0,92,67,47,29.91,29.82,5,0,0,0.00
2013-6-5,82.0,63.2,69.4,72.0,39.4,-99.9,95,71,61,29.94,29.80,157,-116,0,0.66
2013-6-6,73.0,68.8,65.2,72.0,64.4,-99.9,100,95,86,29.83,29.66,5,0,0,0.20
2013-6-7,81.1,71.2,67.1,71.0,67.1,65.0,100,88,58,29.74,29.58,3,0,0,0.18
2013-6-8,80.3,72.1,64.2,68.0,64.8,62.0,100,80,55,29.97,29.74,2,0,0,0.01
2013-6-9,82.0,73.3,67.6,73.0,68.3,64.0,100,85,60,30.00,29.90,1,0,0,1.38
2013-6-10,74.2,66.8,65.6,71.0,49.4,-99.9,100,83,78,29.95,29.83,8,-62,0,0.37
2013-6-11,85.3,76.8,69.8,72.0,70.1,68.0,99,81,59,29.94,29.84,3,0,0,0.00
2013-6-12,89.9,80.3,71.6,74.0,71.1,69.0,100,75,50,29.93,29.84,5,0,0,0.00
2013-6-13,88.2,79.3,69.6,72.0,69.1,65.0,100,73,47,29.85,29.62,10,1,0,0.41
2013-6-14,83.4,66.4,66.6,69.0,38.9,-99.9,100,56,36,29.89,29.71,8,-105,0,0.01
2013-6-15,84.1,73.3,61.8,63.0,58.5,54.0,86,62,38,30.03,29.90,3,0,0,0.00
2013-6-16,85.9,73.9,61.6,69.0,64.0,59.0,97,73,47,30.05,29.91,2,0,0,0.02
2013-6-17,81.1,69.8,66.6,73.0,60.3,-99.9,100,87,68,29.99,29.84,146,-30,0,0.67
2013-6-18,80.1,69.5,67.8,74.0,63.3,-99.9,100,92,70,29.85,29.74,3,-31,0,0.41
2013-6-19,78.8,55.3,68.8,71.0,23.8,-99.9,100,65,62,29.98,29.79,5,-210,0,0.00
2013-6-20,82.8,73.1,65.0,69.0,64.8,62.0,100,77,51,30.09,29.98,7,0,0,0.00
2013-6-21,83.6,73.3,64.2,68.0,62.7,59.0,98,72,44,30.14,30.04,6,0,0,0.00
2013-6-22,82.8,73.8,64.0,66.0,62.2,59.0,94,69,48,30.12,29.99,3,0,0,0.00
2013-6-23,85.3,74.8,65.0,70.0,66.2,64.0,99,76,52,30.10,29.99,1,0,0,0.00
2013-6-24,83.0,74.6,68.1,73.0,69.1,67.0,99,83,60,30.11,29.99,3,0,0,0.08
2013-6-25,84.9,70.7,69.3,74.0,36.7,-99.9,100,71,65,30.06,29.93,1,-42,0,0.07
2013-6-26,84.5,73.3,69.6,74.0,54.7,-99.9,100,77,57,29.97,29.82,2,-31,0,0.01
2013-6-27,83.6,73.5,74.6,72.0,54.9,-99.9,86,69,63,29.87,29.69,3,-67,0,0.00
2013-6-28,89.3,79.4,71.6,73.0,69.3,64.0,99,73,44,29.74,29.52,2,0,0,0.00
2013-6-29,86.1,76.5,70.1,71.0,65.3,59.0,96,70,40,29.60,29.54,2,0,0,0.00
2013-6-30,82.8,73.9,68.9,72.0,66.6,63.0,98,79,54,29.69,29.58,3,0,0,0.02
2013-7-1,83.6,70.2,67.1,71.0,52.9,-99.9,100,77,54,29.82,29.68,3,-31,0,0.01
2013-7-2,85.9,75.8,68.9,70.0,66.1,62.0,98,74,45,29.98,29.81,3,0,0,0.00
2013-7-3,75.3,70.3,66.6,73.0,69.3,66.0,100,96,80,30.07,29.95,3,0,0,1.37
2013-7-4,74.9,65.5,66.6,75.0,57.6,-99.9,100,93,99,30.09,30.00,3,-62,0,0.60
2013-7-5,81.6,68.0,67.9,74.0,51.3,-99.9,100,85,64,30.11,30.02,3,-33,0,0.99
2013-7-6,83.2,72.4,67.8,75.0,70.0,67.0,100,93,59,30.07,29.96,5,0,0,0.44
2013-7-7,76.8,73.4,70.1,74.0,71.7,70.0,100,95,82,30.07,30.00,0,0,0,0.03
2013-7-8,85.7,71.4,70.6,75.0,60.1,-99.9,100,80,58,30.09,29.98,0,-53,0,0.03
2013-7-9,87.6,76.9,72.1,76.0,72.6,68.0,100,88,54,30.07,29.95,0,0,0,0.40
2013-7-10,84.5,74.0,71.8,78.0,67.1,-99.9,100,88,61,29.99,29.85,3,-10,0,0.14
2013-7-11,78.6,74.2,70.3,74.0,72.2,70.0,100,93,83,29.87,29.76,0,0,0,0.00
2013-7-12,86.5,72.2,69.6,75.0,55.1,-99.9,100,82,9,29.86,29.75,4,-23,0,0.02
2013-7-13,77.2,70.9,67.8,72.0,68.2,64.0,100,91,74,29.97,29.84,6,1,0,0.19
2013-7-14,78.8,73.0,70.4,75.0,72.2,70.0,100,97,82,30.12,29.95,5,0,0,0.35
2013-7-15,83.0,69.8,69.9,75.0,37.1,-99.9,100,74,69,30.18,30.10,6,-45,0,0.00
2013-7-16,88.2,76.9,68.9,76.0,68.6,65.0,100,78,48,30.21,30.12,3,0,0,0.00
2013-7-17,91.0,77.0,69.6,78.0,68.8,-99.9,100,83,47,30.19,30.01,4,0,0,1.34
2013-7-18,87.0,76.8,67.9,76.0,69.8,67.0,100,81,54,30.12,29.94,6,0,0,0.01
2013-7-19,89.3,79.0,70.9,78.0,70.9,66.0,100,79,50,30.01,29.87,0,0,0,0.00
2013-7-20,85.5,75.6,71.5,74.0,71.8,65.0,100,89,56,29.93,29.84,2,0,0,0.38
2013-7-21,86.1,75.5,69.6,75.0,71.3,68.0,100,88,57,29.93,29.80,8,0,0,1.56
2013-7-22,81.8,74.3,69.6,74.0,70.9,69.0,100,90,67,29.92,29.77,3,0,0,0.02
2013-7-23,81.2,75.3,70.4,72.0,69.7,66.0,99,83,60,29.86,29.73,2,0,0,0.01
2013-7-24,82.0,75.1,70.9,73.0,69.6,64.0,100,84,59,29.77,29.70,3,0,0,0.02
2013-7-25,88.0,77.0,69.3,73.0,67.9,59.0,100,77,45,29.88,29.72,5,0,0,0.00
2013-7-26,87.4,74.4,67.4,71.0,68.1,65.0,100,83,50,29.96,29.87,3,0,0,0.12
2013-7-27,78.6,73.6,69.6,74.0,69.1,65.0,100,87,65,29.90,29.80,2,0,0,0.00
2013-7-28,84.1,75.3,68.1,73.0,68.3,65.0,100,81,53,29.92,29.81,1,0,0,0.00
2013-7-29,84.5,74.0,67.6,70.0,64.1,55.0,100,75,38,30.04,29.90,0,0,0,0.00
2013-7-30,87.4,74.7,62.3,68.0,63.2,60.0,100,70,42,30.10,30.00,2,0,0,0.00
2013-7-31,76.7,73.3,69.4,74.0,69.5,66.0,100,88,76,30.03,29.87,0,0,0,0.06
2013-8-1,83.4,73.5,71.1,75.0,64.3,-99.9,100,84,65,29.89,29.78,0,-14,0,0.33
2013-8-2,87.2,76.6,67.8,72.0,67.7,64.0,100,76,47,29.91,29.80,0,0,0,0.00
2013-8-3,83.0,75.9,67.8,75.0,67.9,63.0,100,78,52,29.94,29.89,0,0,0,0.00
2013-8-4,86.3,78.5,73.5,73.0,68.0,63.0,92,71,48,29.91,29.82,6,0,0,0.00
2013-8-5,86.7,76.8,68.4,70.0,66.4,63.0,90,71,46,29.95,29.86,3,0,0,0.00
2013-8-6,85.9,78.4,73.2,76.0,65.8,-99.9,100,78,50,29.89,29.83,0,0,0,0.00
2013-8-7,77.2,73.5,69.4,76.0,73.3,69.0,100,99,83,29.96,29.86,6,0,0,2.27
2013-8-8,80.5,74.3,71.6,78.0,73.9,72.0,100,99,78,29.96,29.90,0,0,0,1.33
2013-8-9,86.3,78.3,71.8,77.0,72.0,68.0,100,83,57,29.98,29.89,0,0,0,0.00
2013-8-10,86.7,78.3,72.1,77.0,72.1,69.0,100,82,60,30.01,29.95,0,0,0,0.00
2013-8-11,87.6,78.0,71.1,76.0,71.1,68.0,100,81,54,30.05,29.93,2,0,0,0.00
2013-8-12,85.5,77.1,72.1,77.0,72.0,69.0,100,85,60,29.99,29.88,0,0,0,0.02
2013-8-13,83.8,75.3,71.1,76.0,72.6,68.0,100,92,63,29.90,29.77,1,0,0,0.29
2013-8-14,80.7,74.2,69.6,76.0,69.8,63.0,100,87,68,29.92,29.76,3,0,0,0.00
2013-8-15,74.4,68.8,66.4,64.0,59.8,56.0,87,74,55,30.00,29.90,6,1,0,0.00
2013-8-16,67.1,64.3,60.5,64.0,61.1,59.0,100,89,76,30.04,29.95,7,1,0,0.60
2013-8-17,64.7,62.8,60.2,65.0,62.5,59.0,100,99,85,30.06,30.00,7,1,0,0.39
2013-8-18,71.8,66.2,64.5,72.0,55.3,-99.9,100,93,100,30.11,30.01,3,-10,0,0.91
2013-8-19,73.9,70.1,67.3,74.0,70.0,67.0,100,100,99,30.05,29.96,6,0,0,0.27
2013-8-20,78.6,72.5,68.9,74.0,70.6,69.0,100,94,75,30.08,29.98,5,0,0,0.02
2013-8-21,77.2,71.5,69.4,76.0,68.0,-99.9,100,96,83,30.14,30.01,1,-10,0,0.64
2013-8-22,86.7,74.6,67.9,74.0,69.9,66.0,100,88,52,30.06,29.93,8,0,0,0.41
2013-8-23,85.7,75.3,67.3,75.0,69.5,66.0,100,84,53,29.98,29.86,2,0,0,0.01
2013-8-24,81.4,72.8,66.9,69.0,65.6,63.0,100,80,59,30.15,29.93,7,0,0,0.00
2013-8-25,80.7,71.1,62.4,65.0,60.1,57.0,89,70,47,30.27,30.15,4,0,0,0.00
2013-8-26,82.0,69.8,59.3,71.0,60.5,57.0,100,75,45,30.22,30.05,0,0,0,0.00
2013-8-27,85.7,72.4,61.6,68.0,62.8,59.0,100,74,41,30.07,29.93,0,0,0,0.00
2013-8-28,87.2,76.0,67.3,73.0,68.6,64.0,100,81,47,29.95,29.86,0,0,0,0.00
2013-8-29,88.6,79.2,71.3,73.0,70.4,68.0,100,76,52,29.88,29.79,0,0,0,0.00
2013-8-30,85.7,77.5,72.8,76.0,72.0,69.0,100,84,64,29.92,29.82,0,0,0,0.00
2013-8-31,87.4,75.3,70.4,77.0,72.2,68.0,100,92,56,29.87,29.76,0,0,0,0.51
2013-9-1,80.1,73.3,68.3,78.0,72.1,68.0,100,96,82,29.83,29.74,0,0,0,0.02
2013-9-2,77.9,73.9,71.1,74.0,70.9,68.0,100,91,74,29.86,29.76,2,0,0,0.00
2013-9-3,85.1,76.6,71.5,74.0,69.8,62.0,100,81,47,29.86,29.76,0,0,0,0.00
2013-9-4,84.9,75.0,66.6,72.0,66.8,61.0,100,78,45,29.99,29.85,1,0,0,0.00
2013-9-5,84.9,75.2,67.6,74.0,68.4,65.0,100,82,52,30.02,29.94,0,0,0,0.00
2013-9-6,82.8,52.8,66.6,74.0,-5.6,-99.9,100,52,56,30.06,29.96,7,-260,0,0.00
2013-9-7,82.2,48.9,63.4,67.0,3.0,-99.9,100,56,51,30.06,29.90,0,-260,0,0.00
2013-9-8,84.9,41.5,65.6,72.0,-7.7,-99.9,100,50,53,29.92,29.82,153,-371,0,0.00
2013-9-9,86.5,12.5,80.7,65.0,-91.3,-99.9,100,4,45,30.05,29.87,59,-799,0,0.00
2013-9-10,85.7,18.2,79.2,68.0,-73.8,-99.9,67,10,56,30.16,30.01,0,-739,0,0.00
2013-9-11,84.7,5.7,66.6,67.0,-96.4,-99.9,100,3,56,30.15,30.00,0,-862,0,0.00
2013-9-12,68.1,2.9,67.8,68.0,-92.8,-99.9,100,4,100,30.03,29.81,157,-922,0,0.00
2013-9-13,80.9,28.0,65.3,56.0,-56.6,-99.9,64,14,35,29.84,29.69,1,-610,0,0.00
2013-9-14,77.6,57.2,55.3,59.0,30.0,-99.9,91,54,45,29.98,29.79,13,-145,0,0.00
2013-9-15,79.9,45.5,61.0,68.0,-3.0,-99.9,100,45,57,30.09,29.96,122,-332,0,0.00
2013-9-16,73.0,0.8,73.0,-99.9,-99.9,-99.9,0,0,100,30.07,29.97,2,-978,0,0.00
2013-9-17,74.2,55.6,65.8,61.0,10.8,-99.9,81,46,54,30.15,30.03,11,-158,0,0.00
2013-9-18,72.7,23.3,61.5,57.0,-63.8,-99.9,77,17,72,30.17,30.05,8,-631,0,0.00
2013-9-19,79.4,2.5,78.8,61.0,-96.5,-99.9,54,1,54,30.11,29.96,0,-968,0,0.00
2013-9-20,81.6,11.3,14.0,63.0,-98.2,-99.9,75,1,75,30.11,29.80,147,-817,0,0.00
2013-9-21,71.5,55.6,10.0,70.0,25.3,-99.9,100,71,75,29.83,29.59,112,-169,0,0.96
2013-9-22,77.2,66.5,58.0,64.0,60.4,56.0,100,83,48,29.78,29.66,6,0,0,0.00
2013-9-23,75.8,48.6,14.0,61.0,-12.2,-99.9,100,46,51,29.95,29.79,157,-242,0,0.00
2013-9-24,68.8,29.6,62.0,65.0,-36.8,-99.9,100,34,78,29.95,29.81,3,-510,0,0.01
2013-9-25,64.3,59.6,61.0,64.0,54.4,-99.9,100,96,100,29.81,29.74,6,-31,0,0.92
2013-9-26,73.0,30.1,60.2,63.0,-27.7,-99.9,100,44,66,29.93,29.78,5,-468,0,0.00
2013-9-27,74.7,22.6,58.4,63.0,-67.1,-99.9,90,13,53,30.06,29.92,7,-599,0,0.00
2013-9-28,71.5,17.8,57.0,58.0,-82.2,-99.9,100,8,51,30.15,30.03,10,-697,0,0.00
2013-9-29,70.1,33.9,55.7,58.0,-29.7,-99.9,90,33,54,30.08,29.94,5,-472,0,0.00
2013-9-30,70.9,35.9,53.5,57.0,-5.2,-99.9,100,54,59,30.02,29.89,157,-354,0,0.00
2013-10-1,75.6,16.7,54.7,57.0,-56.9,-99.9,100,25,53,30.08,29.96,157,-684,0,0.00
2013-10-2,79.9,9.0,76.1,63.0,-86.4,-99.9,83,6,49,30.08,29.94,19,-852,0,0.00
2013-10-3,78.8,12.0,74.2,60.0,-83.4,-99.9,58,6,51,30.07,29.95,65,-801,0,0.00
2013-10-4,78.5,5.1,76.8,60.0,-96.4,-99.9,54,1,54,30.09,29.98,0,-922,0,0.00
2013-10-5,84.0,12.6,73.7,60.0,-96.6,-99.9,48,1,48,30.06,29.89,0,-801,0,0.00
2013-10-6,79.9,26.8,64.7,71.0,-40.4,-99.9,100,27,49,29.96,29.77,3,-635,0,1.33
2013-10-7,73.0,43.7,59.9,66.0,2.6,-99.9,100,56,59,29.87,29.71,3,-319,0,0.29
2013-10-8,71.6,38.5,59.5,56.0,-17.7,-99.9,86,35,53,30.06,29.84,11,-394,0,0.00
2013-10-9,70.3,35.7,52.9,54.0,-16.2,-99.9,87,36,42,30.13,30.00,6,-393,0,0.00
2013-10-10,73.3,33.6,36.6,57.0,-14.1,-99.9,100,49,60,30.06,29.92,11,-308,0,0.00
2013-10-11,73.0,29.0,54.4,56.0,-28.0,-99.9,96,41,52,29.96,29.87,0,-468,0,0.00
2013-10-12,76.5,30.4,-90.0,59.0,-31.9,-99.9,100,39,75,30.14,29.88,149,-446,0,0.00
2013-10-13,76.1,35.0,57.3,63.0,-25.1,-99.9,99,40,71,30.11,30.00,3,-421,0,0.00
2013-10-14,70.4,47.1,62.0,63.0,6.3,-99.9,98,58,70,30.11,30.02,7,-199,0,0.00
2013-10-15,64.8,53.5,60.5,59.0,32.8,-99.9,89,70,73,30.07,29.96,8,-135,0,0.00
2013-10-16,70.4,33.6,57.2,62.0,-22.6,-99.9,100,43,77,29.98,29.86,0,-448,0,0.00
2013-10-17,67.3,47.8,61.0,67.0,19.5,-99.9,100,73,90,29.88,29.78,2,-242,0,0.26
2013-10-18,65.6,47.8,51.4,61.0,24.1,-99.9,100,74,64,29.94,29.82,6,-179,0,0.00
2013-10-19,60.5,54.3,53.9,58.0,44.8,-99.9,100,85,79,29.90,29.84,2,-42,0,0.04
2013-10-20,65.2,48.0,47.1,52.0,25.1,-99.9,100,70,41,30.00,29.88,3,-83,0,0.15
2013-10-21,63.9,53.1,43.9,59.0,50.1,42.0,100,90,74,30.07,29.94,2,0,0,0.00
2013-10-22,66.8,59.1,53.6,60.0,54.8,50.0,100,87,56,29.95,29.75,0,0,0,0.02
2013-10-23,57.3,50.5,41.5,50.0,34.5,-99.9,93,67,41,30.01,29.73,8,-31,0,0.00
2013-10-24,59.9,47.3,36.9,41.0,35.8,32.0,87,68,35,30.12,30.00,2,0,0,0.00
2013-10-25,54.8,45.2,36.2,40.0,28.8,17.0,83,56,23,30.30,30.12,4,0,0,0.00
2013-10-26,56.3,43.1,31.2,39.0,32.6,27.0,88,69,39,30.29,30.09,5,0,0,0.00
2013-10-27,65.2,53.8,42.5,52.0,44.2,36.0,84,71,56,30.09,30.02,3,0,0,0.00
2013-10-28,63.1,57.0,53.9,59.0,54.5,50.0,100,92,70,30.19,30.04,0,0,0,0.04
2013-10-29,70.1,58.7,52.3,60.0,51.2,-99.9,100,84,59,30.25,30.15,3,-10,0,0.00
2013-10-30,74.4,62.3,53.9,62.0,56.0,54.0,100,82,50,30.22,30.06,2,0,0,0.00
2013-10-31,72.5,65.0,57.3,60.0,56.9,51.0,100,76,64,30.09,29.78,4,0,0,0.00
2013-11-1,70.9,64.8,56.5,64.0,56.9,47.0,100,77,53,29.77,29.59,5,0,0,0.31
2013-11-2,66.3,55.9,47.1,48.0,42.7,36.0,88,63,37,29.97,29.71,6,0,0,0.00
2013-11-3,63.5,48.5,42.3,42.0,23.8,-99.9,87,59,29,30.24,29.96,3,-30,0,0.00
2013-11-4,60.2,47.8,39.8,38.0,35.8,32.0,91,66,37,30.39,30.25,6,1,0,0.00
2013-11-5,60.7,48.2,41.1,43.0,28.3,-99.9,77,55,30,30.43,30.28,8,-20,0,0.00
2013-11-6,70.9,55.6,50.2,55.0,37.6,-99.9,90,69,56,30.28,30.04,6,-31,0,0.00
2013-11-7,63.5,49.8,44.1,60.0,21.3,-99.9,100,61,34,30.12,29.93,7,-72,0,0.04
2013-11-8,59.6,46.2,36.6,35.0,25.3,-99.9,79,52,19,30.26,30.09,5,-10,0,0.00
2013-11-9,57.0,45.3,34.1,41.0,33.8,30.0,92,67,36,30.31,30.16,1,0,0,0.00
2013-11-10,69.4,47.5,44.3,40.0,5.6,-99.9,86,38,24,30.19,30.06,3,-125,0,0.00
2013-11-11,62.3,34.9,39.3,38.0,-12.9,-99.9,86,33,25,30.26,30.09,7,-326,0,0.00
2013-11-12,62.9,44.8,32.8,40.0,22.2,-99.9,90,54,38,30.36,30.02,11,-19,0,0.00
2013-11-13,48.0,24.9,23.9,23.0,-22.5,-99.9,74,34,16,30.52,30.34,157,-272,0,0.00
2013-11-14,57.6,36.2,25.3,27.0,9.5,-99.9,90,51,17,30.45,30.26,3,-31,0,0.00
2013-11-15,48.6,43.6,33.5,48.0,35.1,23.0,100,74,43,30.26,30.10,2,0,0,0.19
2013-11-16,58.3,53.3,48.5,58.0,53.1,49.0,100,99,93,30.17,30.07,2,0,0,0.00
2013-11-17,66.9,59.8,55.9,67.0,59.9,56.0,100,100,100,30.10,29.83,2,0,0,0.23
2013-11-18,68.9,40.7,51.1,68.0,-7.1,-99.9,100,41,26,29.95,29.78,6,-332,0,0.29
2013-11-19,57.6,37.4,39.1,36.0,-2.3,-99.9,75,38,31,30.11,29.93,10,-187,0,0.00
2013-11-20,53.9,45.2,37.8,30.0,24.7,-99.9,65,49,35,30.28,30.11,12,-8,0,0.00
2013-11-21,50.5,48.4,46.2,45.0,38.5,30.0,84,69,49,30.35,30.26,10,2,0,0.00
2013-11-22,60.9,54.7,48.9,58.0,52.1,45.0,100,91,79,30.30,30.08,2,0,0,0.02
2013-11-23,60.7,53.2,41.1,58.0,38.4,-99.9,100,71,37,30.16,30.01,6,-9,0,0.00
2013-11-24,46.5,37.8,29.7,24.0,13.7,5.0,57,40,19,30.42,30.15,6,1,0,0.00
2013-11-25,41.9,34.7,27.6,25.0,11.3,4.0,69,40,24,30.46,30.20,10,1,0,0.00
2013-11-26,47.9,38.5,32.2,48.0,37.7,26.0,100,97,73,30.19,29.56,12,2,0,1.25
2013-11-27,44.3,35.2,27.0,44.0,26.1,-99.9,100,73,49,30.20,29.54,11,-7,0,0.13
2013-11-28,48.0,33.1,21.9,27.0,19.0,13.0,82,60,24,30.42,30.20,3,0,0,0.00
2013-11-29,61.0,36.0,26.7,31.0,9.4,-99.9,90,56,17,30.47,30.35,3,-74,0,0.00
2013-11-30,49.6,31.2,32.7,28.0,-2.2,-99.9,77,44,31,30.53,30.28,7,-197,0,0.00
2013-12-1,54.4,12.1,43.2,37.0,-84.4,-99.9,78,7,58,30.28,29.93,6,-749,0,0.00
2013-12-2,51.6,40.5,44.2,50.0,16.3,-99.9,100,71,63,29.93,29.74,2,-126,0,0.21
2013-12-3,54.1,47.1,49.5,54.0,32.2,-99.9,100,87,100,29.85,29.76,2,-64,0,0.32
2013-12-4,62.1,37.9,52.8,62.0,3.5,-99.9,100,67,100,29.95,29.83,3,-270,0,0.04
2013-12-5,69.1,65.8,60.9,69.0,65.7,61.0,100,99,91,29.99,29.88,8,1,0,0.20
2013-12-6,72.7,66.0,59.5,67.0,59.0,-99.9,100,86,74,29.96,29.86,10,-18,0,0.00
2013-12-7,59.0,28.9,43.1,59.0,-11.6,-99.9,100,59,80,30.24,29.93,8,-377,0,0.00
2013-12-8,48.9,42.1,38.2,46.0,37.5,-99.9,100,95,84,30.25,30.15,16,-7,0,0.00
2013-12-9,48.0,40.6,37.9,48.0,33.0,-99.9,100,94,100,30.18,29.96,5,-31,0,0.00
2013-12-10,49.2,30.7,31.5,49.0,-13.0,-99.9,100,57,61,30.27,29.86,12,-272,0,0.00
2013-12-11,51.1,8.6,27.8,27.0,-68.3,-99.9,87,20,52,30.40,30.22,3,-726,0,0.00
2013-12-12,48.3,20.8,30.6,25.0,-50.1,-99.9,71,23,26,30.37,30.22,5,-384,0,0.00
2013-12-13,56.0,19.5,25.8,29.0,-45.8,-99.9,82,22,18,30.32,30.10,0,-510,0,0.00
2013-12-14,46.2,43.9,41.2,46.0,38.9,25.0,100,85,49,30.13,29.74,7,0,0,0.11
2013-12-15,48.6,39.4,31.5,49.0,32.4,-99.9,100,78,64,30.12,29.74,11,-7,0,0.00
2013-12-16,53.3,34.6,30.0,31.0,-2.2,-99.9,83,50,28,30.18,30.06,6,-103,0,0.00
2013-12-17,58.9,48.1,36.9,34.0,30.6,27.0,71,52,34,30.14,29.99,10,3,0,0.00
2013-12-18,52.0,42.1,34.1,29.0,18.6,10.0,71,42,19,30.25,30.07,8,1,0,0.00
2013-12-19,62.3,43.0,29.0,33.0,24.5,16.0,86,56,17,30.29,30.14,3,0,0,0.00
2013-12-20,60.7,46.4,35.0,48.0,37.9,28.0,86,73,58,30.19,30.06,3,0,0,0.00
2013-12-21,68.4,56.2,48.5,67.0,54.4,45.0,100,93,83,30.06,29.86,3,0,0,0.02
2013-12-22,68.6,60.9,56.7,66.0,60.1,56.0,100,97,87,29.98,29.80,5,1,0,1.48
2013-12-23,56.7,49.1,36.9,57.0,46.2,31.0,100,90,75,30.16,29.95,6,2,0,0.08
2013-12-24,41.9,33.9,27.8,31.0,19.8,-99.9,83,62,36,30.34,30.16,10,-8,0,0.00
2013-12-25,42.5,32.1,23.6,21.0,15.9,13.0,73,54,31,30.47,30.31,8,1,0,0.00
2013-12-26,53.5,38.7,29.0,31.0,19.7,-99.9,78,54,29,30.33,30.19,7,-21,0,0.00
2013-12-27,51.3,37.3,29.4,30.0,25.6,20.0,88,67,29,30.41,30.26,6,0,0,0.00
2013-12-28,43.6,36.9,30.0,39.0,31.1,26.0,100,80,53,30.36,29.98,10,1,0,0.01
2013-12-29,51.9,42.3,38.5,46.0,35.3,-99.9,100,86,70,29.97,29.79,6,-29,0,0.35
2013-12-30,48.5,43.9,40.9,40.0,38.5,36.0,90,81,69,30.12,29.95,4,2,0,0.00
2013-12-31,47.1,39.8,33.4,35.0,27.7,19.0,81,64,34,30.30,30.12,6,1,0,0.00
2014-1-1,47.4,38.7,31.0,35.0,28.1,-99.9,89,69,50,30.32,30.07,5,-10,0,0.00
2014-1-2,48.3,38.7,24.8,48.0,24.9,-99.9,100,77,58,30.07,29.67,20,-18,0,0.08